createdAt,value
2023-02-27T00:03:47.075Z,1.99
2023-02-27T00:08:36.811Z,1.90
2023-02-27T00:13:26.873Z,1.95
2023-02-27T00:18:23.692Z,1.83
2023-02-27T00:23:24.908Z,1.79
2023-02-27T00:28:15.847Z,1.71
2023-02-27T00:33:11.015Z,1.71
2023-02-27T00:38:06.412Z,1.69
2023-02-27T00:42:59.280Z,1.64
2023-02-27T00:47:49.195Z,1.60
2023-02-27T00:52:43.135Z,1.66
2023-02-27T00:57:37.393Z,1.62
2023-02-27T01:02:31.956Z,1.69
2023-02-27T01:07:30.588Z,1.63
2023-02-27T01:17:34.662Z,1.54
2023-02-27T01:22:27.549Z,1.54
2023-02-27T01:27:17.437Z,1.57
2023-02-27T01:32:07.755Z,1.44
2023-02-27T01:37:04.062Z,1.40
2023-02-27T01:41:57.478Z,1.32
2023-02-27T01:46:55.135Z,1.25
2023-02-27T01:51:47.628Z,1.29
2023-02-27T01:56:42.191Z,1.25
2023-02-27T02:01:44.734Z,1.26
2023-02-27T02:06:39.725Z,1.12
2023-02-27T02:11:34.378Z,1.06
2023-02-27T02:16:37.715Z,1.06
2023-02-27T02:22:07.061Z,0.83
2023-02-27T02:27:04.805Z,0.58
2023-02-27T02:32:32.173Z,0.70
2023-02-27T02:37:55.390Z,0.60
2023-02-27T02:43:10.204Z,0.60
2023-02-27T02:48:13.164Z,0.50
2023-02-27T02:53:17.326Z,0.55
2023-02-27T02:58:12.912Z,0.76
2023-02-27T03:03:30.745Z,0.53
2023-02-27T03:08:32.062Z,0.43
2023-02-27T03:13:31.777Z,0.51
2023-02-27T03:18:25.279Z,0.39
2023-02-27T03:23:21.683Z,0.47
2023-02-27T03:28:21.985Z,0.42
2023-02-27T03:33:32.472Z,0.46
2023-02-27T03:38:32.227Z,0.37
2023-02-27T03:43:31.977Z,0.21
2023-02-27T03:48:31.476Z,0.29
2023-02-27T03:53:33.919Z,0.31
2023-02-27T03:58:25.261Z,0.29
2023-02-27T04:03:22.351Z,0.40
2023-02-27T04:08:25.149Z,0.46
2023-02-27T04:13:25.824Z,0.44
2023-02-27T04:18:23.332Z,0.49
2023-02-27T04:23:18.478Z,0.48
2023-02-27T04:28:25.693Z,0.46
2023-02-27T04:33:17.783Z,0.44
2023-02-27T04:38:13.355Z,0.37
2023-02-27T04:43:06.904Z,0.29
2023-02-27T04:48:02.375Z,0.33
2023-02-27T04:52:55.894Z,0.24
2023-02-27T04:58:00.390Z,0.19
2023-02-27T05:02:54.794Z,0.22
2023-02-27T05:07:55.684Z,0.19
2023-02-27T05:12:52.802Z,0.14
2023-02-27T05:17:54.298Z,0.06
2023-02-27T05:23:02.530Z,0.04
2023-02-27T05:28:05.053Z,-0.01
2023-02-27T05:33:01.278Z,-0.20
2023-02-27T05:37:57.899Z,-0.13
2023-02-27T05:42:50.442Z,-0.14
2023-02-27T05:47:44.976Z,-0.13
2023-02-27T05:52:35.487Z,-0.11
2023-02-27T05:57:36.022Z,-0.10
2023-02-27T06:02:31.152Z,-0.19
2023-02-27T06:07:28.635Z,-0.20
2023-02-27T06:12:21.233Z,-0.24
2023-02-27T06:17:16.743Z,-0.28
2023-02-27T06:22:16.861Z,-0.27
2023-02-27T06:27:09.459Z,-0.28
2023-02-27T06:31:59.761Z,-0.34
2023-02-27T06:36:53.010Z,-0.54
2023-02-27T06:41:48.661Z,-0.64
2023-02-27T06:46:46.487Z,-0.67
2023-02-27T06:51:42.456Z,-0.57
2023-02-27T06:56:44.487Z,-0.32
2023-02-27T07:01:37.855Z,-0.29
2023-02-27T07:07:35.108Z,-0.37
2023-02-27T07:11:42.419Z,-0.47
2023-02-27T07:16:39.441Z,-0.51
2023-02-27T07:21:35.607Z,-0.23
2023-02-27T07:26:33.552Z,-0.23
2023-02-27T07:31:25.605Z,-0.17
2023-02-27T07:36:18.074Z,-0.11
2023-02-27T07:41:21.307Z,-0.02
2023-02-27T07:46:28.541Z,0.11
2023-02-27T07:51:24.260Z,0.22
2023-02-27T07:56:21.577Z,0.33
2023-02-27T08:01:15.498Z,0.38
2023-02-27T08:06:12.759Z,0.59
2023-02-27T08:11:02.955Z,0.61
2023-02-27T08:15:58.724Z,0.71
2023-02-27T08:20:51.850Z,0.69
2023-02-27T08:25:46.699Z,1.06
2023-02-27T08:30:42.670Z,1.39
2023-02-27T08:35:40.188Z,1.53
2023-02-27T08:40:36.847Z,1.65
2023-02-27T08:45:27.132Z,1.65
2023-02-27T08:50:17.571Z,1.77
2023-02-27T08:55:12.794Z,1.63
2023-02-27T09:00:10.364Z,1.78
2023-02-27T09:05:01.915Z,1.87
2023-02-27T09:10:00.649Z,1.78
2023-02-27T09:14:56.253Z,1.93
2023-02-27T09:20:02.152Z,2.02
2023-02-27T09:24:58.396Z,2.23
2023-02-27T09:29:49.098Z,3.20
2023-02-27T09:34:46.608Z,4.28
2023-02-27T09:39:41.037Z,4.98
2023-02-27T09:44:46.346Z,5.82
2023-02-27T09:49:48.845Z,6.44
2023-02-27T09:54:44.566Z,6.13
2023-02-27T09:59:39.333Z,6.49
2023-02-27T10:04:35.160Z,6.48
2023-02-27T10:09:37.455Z,6.41
2023-02-27T10:14:45.712Z,6.84
2023-02-27T10:19:54.167Z,6.45
2023-02-27T10:24:50.279Z,6.65
2023-02-27T10:29:44.930Z,7.24
2023-02-27T10:34:39.951Z,7.73
2023-02-27T10:39:32.092Z,7.66
2023-02-27T10:44:24.576Z,7.01
2023-02-27T10:49:25.114Z,6.68
2023-02-27T10:54:27.195Z,6.91
2023-02-27T10:59:22.553Z,7.31
2023-02-27T11:04:14.017Z,7.00
2023-02-27T11:09:24.354Z,6.73
2023-02-27T11:14:31.167Z,6.99
2023-02-27T11:19:30.759Z,6.63
2023-02-27T11:24:24.746Z,6.77
2023-02-27T11:29:26.392Z,6.61
2023-02-27T11:34:25.143Z,6.61
2023-02-27T11:39:33.939Z,6.22
2023-02-27T11:44:50.612Z,6.22
2023-02-27T11:49:52.675Z,5.85
2023-02-27T11:54:53.162Z,6.14
2023-02-27T11:59:47.944Z,6.70
2023-02-27T12:04:48.476Z,6.78
2023-02-27T12:09:47.872Z,6.97
2023-02-27T12:14:46.285Z,6.99
2023-02-27T12:19:40.812Z,6.89
2023-02-27T12:24:36.325Z,6.90
2023-02-27T12:29:40.899Z,6.98
2023-02-27T12:34:39.586Z,7.19
2023-02-27T12:39:39.292Z,7.32
2023-02-27T12:44:42.622Z,6.51
2023-02-27T12:49:49.246Z,6.01
2023-02-27T12:54:43.225Z,5.98
2023-02-27T12:59:42.815Z,5.91
2023-02-27T13:04:41.310Z,6.45
2023-02-27T13:09:50.474Z,6.13
2023-02-27T13:14:51.095Z,6.03
2023-02-27T13:19:46.077Z,6.16
2023-02-27T13:24:49.503Z,6.16
2023-02-27T13:29:49.797Z,6.60
2023-02-27T13:34:47.657Z,6.90
2023-02-27T13:39:52.677Z,6.64
2023-02-27T13:44:50.256Z,6.87
2023-02-27T13:49:48.266Z,6.78
2023-02-27T13:54:49.959Z,6.95
2023-02-27T13:59:45.608Z,6.79
2023-02-27T14:04:42.567Z,6.77
2023-02-27T14:09:40.811Z,6.99
2023-02-27T14:14:45.235Z,6.97
2023-02-27T14:19:58.650Z,6.93
2023-02-27T14:25:10.173Z,6.69
2023-02-27T14:30:05.134Z,6.69
2023-02-27T14:35:09.699Z,6.28
2023-02-27T14:40:07.397Z,6.31
2023-02-27T14:44:58.571Z,6.40
2023-02-27T14:49:51.240Z,6.45
2023-02-27T14:54:45.351Z,6.65
2023-02-27T14:59:45.272Z,6.59
2023-02-27T15:04:43.070Z,6.74
2023-02-27T15:09:38.094Z,6.52
2023-02-27T15:14:38.588Z,6.71
2023-02-27T15:19:40.321Z,6.36
2023-02-27T15:24:49.278Z,6.77
2023-02-27T15:29:50.918Z,6.73
2023-02-27T15:34:50.689Z,6.84
2023-02-27T15:39:46.799Z,6.89
2023-02-27T15:44:40.853Z,6.95
2023-02-27T15:49:41.520Z,6.69
2023-02-27T15:54:38.918Z,6.54
2023-02-27T15:59:29.110Z,6.36
2023-02-27T16:04:21.197Z,6.26
2023-02-27T16:09:25.599Z,6.10
2023-02-27T16:14:31.018Z,6.14
2023-02-27T16:19:33.855Z,6.14
2023-02-27T16:24:36.128Z,6.19
2023-02-27T16:29:27.056Z,5.68
2023-02-27T16:34:22.688Z,5.83
2023-02-27T16:39:17.487Z,5.69
2023-02-27T16:44:12.285Z,5.86
2023-02-27T16:49:14.204Z,5.62
2023-02-27T16:54:12.646Z,5.59
2023-02-27T16:59:07.731Z,5.54
2023-02-27T17:04:00.661Z,5.49
2023-02-27T17:08:50.546Z,5.27
2023-02-27T17:13:41.311Z,5.40
2023-02-27T17:18:34.581Z,5.28
2023-02-27T17:23:26.358Z,5.18
2023-02-27T17:28:16.384Z,5.19
2023-02-27T17:33:13.510Z,5.02
2023-02-27T17:38:14.650Z,4.98
2023-02-27T17:43:07.995Z,4.91
2023-02-27T17:48:02.181Z,4.86
2023-02-27T17:52:55.148Z,4.86
2023-02-27T17:57:56.517Z,4.79
2023-02-27T18:02:48.151Z,4.81
2023-02-27T18:07:37.946Z,4.71
2023-02-27T18:12:28.594Z,4.72
2023-02-27T18:17:22.032Z,4.72
2023-02-27T18:22:19.821Z,4.64
2023-02-27T18:27:13.729Z,4.63
2023-02-27T18:32:05.911Z,4.54
2023-02-27T18:37:06.076Z,4.48
2023-02-27T18:42:02.277Z,4.30
2023-02-27T18:46:52.847Z,4.28
2023-02-27T18:51:44.515Z,4.27
2023-02-27T18:56:36.762Z,4.24
2023-02-27T19:01:28.350Z,4.19
2023-02-27T19:06:18.332Z,4.07
2023-02-27T19:11:13.994Z,4.02
2023-02-27T19:16:09.085Z,3.86
2023-02-27T19:21:07.564Z,3.74
2023-02-27T19:26:03.152Z,3.71
2023-02-27T19:31:00.594Z,3.65
2023-02-27T19:35:55.653Z,3.71
2023-02-27T19:40:47.245Z,3.55
2023-02-27T19:45:43.461Z,3.64
2023-02-27T19:50:34.935Z,3.61
2023-02-27T19:55:30.569Z,3.65
2023-02-27T20:00:26.520Z,3.58
2023-02-27T20:05:18.788Z,3.57
2023-02-27T20:10:21.043Z,3.60
2023-02-27T20:15:25.359Z,3.58
2023-02-27T20:20:16.263Z,3.60
2023-02-27T20:25:07.860Z,3.60
2023-02-27T20:29:58.174Z,3.66
2023-02-27T20:34:55.426Z,3.68
2023-02-27T20:39:47.110Z,3.53
2023-02-27T20:44:39.057Z,3.45
2023-02-27T20:49:33.645Z,3.48
2023-02-27T20:54:29.236Z,3.44
2023-02-27T20:59:22.401Z,3.52
2023-02-27T21:04:16.878Z,3.63
2023-02-27T21:09:15.558Z,3.11
2023-02-27T21:14:11.042Z,3.51
2023-02-27T21:19:00.894Z,3.50
2023-02-27T21:23:50.909Z,3.57
2023-02-27T21:28:48.220Z,3.56
2023-02-27T21:33:45.614Z,3.60
2023-02-27T21:38:37.729Z,3.47
2023-02-27T21:43:34.631Z,3.52
2023-02-27T21:48:28.874Z,3.50
2023-02-27T21:53:30.390Z,3.44
2023-02-27T21:58:20.989Z,3.28
2023-02-27T22:03:11.789Z,3.23
2023-02-27T22:08:01.932Z,3.24
2023-02-27T22:12:54.542Z,3.12
2023-02-27T22:17:58.060Z,3.13
2023-02-27T22:22:51.456Z,3.03
2023-02-27T22:27:45.658Z,2.94
2023-02-27T22:32:43.234Z,2.86
2023-02-27T22:37:33.859Z,2.76
2023-02-27T22:42:30.275Z,2.61
2023-02-27T22:47:26.840Z,2.64
2023-02-27T22:52:21.022Z,2.53
2023-02-27T22:57:10.838Z,2.48
2023-02-27T23:02:03.180Z,2.49
2023-02-27T23:06:53.558Z,2.49
2023-02-27T23:11:47.144Z,2.47
2023-02-27T23:16:39.209Z,2.41
2023-02-27T23:21:44.115Z,2.43
2023-02-27T23:26:36.052Z,2.38
2023-02-27T23:31:34.258Z,2.25
2023-02-27T23:36:25.466Z,2.17
2023-02-27T23:41:17.700Z,2.11
2023-02-27T23:46:14.839Z,2.06
2023-02-27T23:51:11.687Z,2.03
2023-02-27T23:56:02.482Z,2.02
